sensor_id;sensor_type;location;lat;lon;timestamp;temperature;humidity
51884;DHT22;37915;53.254;6.598;2023-04-01T00:02:18;9.70;99.90
51884;DHT22;37915;53.254;6.598;2023-04-01T00:04:44;9.70;99.90
51884;DHT22;37915;53.254;6.598;2023-04-01T00:07:11;9.70;99.90
51884;DHT22;37915;53.254;6.598;2023-04-01T00:09:37;9.70;99.90
51884;DHT22;37915;53.254;6.598;2023-04-01T00:12:03;9.70;99.90
51884;DHT22;37915;53.254;6.598;2023-04-01T00:14:29;9.70;99.90
51884;DHT22;37915;53.254;6.598;2023-04-01T00:16:55;9.70;99.90
51884;DHT22;37915;53.254;6.598;2023-04-01T00:19:21;9.70;99.90
51884;DHT22;37915;53.254;6.598;2023-04-01T00:21:47;9.70;99.90
51884;DHT22;37915;53.254;6.598;2023-04-01T00:24:13;9.70;99.90
51884;DHT22;37915;53.254;6.598;2023-04-01T00:26:39;9.70;99.90
51884;DHT22;37915;53.254;6.598;2023-04-01T00:29:08;9.70;99.90
51884;DHT22;37915;53.254;6.598;2023-04-01T00:31:34;9.70;99.90
51884;DHT22;37915;53.254;6.598;2023-04-01T00:33:59;9.70;99.90
51884;DHT22;37915;53.254;6.598;2023-04-01T00:36:25;9.70;99.90
51884;DHT22;37915;53.254;6.598;2023-04-01T00:38:51;9.60;99.90
51884;DHT22;37915;53.254;6.598;2023-04-01T00:41:20;9.70;99.90
51884;DHT22;37915;53.254;6.598;2023-04-01T00:43:48;9.60;99.90
51884;DHT22;37915;53.254;6.598;2023-04-01T00:46:15;9.70;99.90
51884;DHT22;37915;53.254;6.598;2023-04-01T00:48:47;9.60;99.90
51884;DHT22;37915;53.254;6.598;2023-04-01T00:51:27;9.60;99.90
51884;DHT22;37915;53.254;6.598;2023-04-01T00:53:57;9.60;99.90
51884;DHT22;37915;53.254;6.598;2023-04-01T00:56:32;9.60;99.90
51884;DHT22;37915;53.254;6.598;2023-04-01T00:59:25;9.60;99.90
51884;DHT22;37915;53.254;6.598;2023-04-01T01:01:51;9.70;99.90
51884;DHT22;37915;53.254;6.598;2023-04-01T01:04:23;9.60;99.90
51884;DHT22;37915;53.254;6.598;2023-04-01T01:10:35;9.60;99.90
51884;DHT22;37915;53.254;6.598;2023-04-01T01:13:04;9.60;99.90
51884;DHT22;37915;53.254;6.598;2023-04-01T01:15:37;9.60;99.90
51884;DHT22;37915;53.254;6.598;2023-04-01T01:18:21;9.60;99.90
51884;DHT22;37915;53.254;6.598;2023-04-01T01:21:27;9.60;99.90
51884;DHT22;37915;53.254;6.598;2023-04-01T01:24:17;9.60;99.90
51884;DHT22;37915;53.254;6.598;2023-04-01T01:27:17;9.60;99.90
51884;DHT22;37915;53.254;6.598;2023-04-01T01:35:35;9.60;99.90
51884;DHT22;37915;53.254;6.598;2023-04-01T01:38:15;9.60;99.90
51884;DHT22;37915;53.254;6.598;2023-04-01T01:40:44;9.60;99.90
51884;DHT22;37915;53.254;6.598;2023-04-01T01:43:14;9.60;99.90
51884;DHT22;37915;53.254;6.598;2023-04-01T01:45:46;9.60;99.90
51884;DHT22;37915;53.254;6.598;2023-04-01T01:48:13;9.60;99.90
51884;DHT22;37915;53.254;6.598;2023-04-01T01:50:41;9.60;99.90
51884;DHT22;37915;53.254;6.598;2023-04-01T01:53:11;9.60;99.90
51884;DHT22;37915;53.254;6.598;2023-04-01T01:55:42;9.60;99.90
51884;DHT22;37915;53.254;6.598;2023-04-01T01:58:32;9.60;99.90
51884;DHT22;37915;53.254;6.598;2023-04-01T02:01:08;9.60;99.90
51884;DHT22;37915;53.254;6.598;2023-04-01T02:03:36;9.60;99.90
51884;DHT22;37915;53.254;6.598;2023-04-01T02:06:06;9.60;99.90
51884;DHT22;37915;53.254;6.598;2023-04-01T02:08:50;9.60;99.90
51884;DHT22;37915;53.254;6.598;2023-04-01T02:11:19;9.60;99.90
51884;DHT22;37915;53.254;6.598;2023-04-01T02:13:51;9.60;99.90
51884;DHT22;37915;53.254;6.598;2023-04-01T02:16:33;9.60;99.90
51884;DHT22;37915;53.254;6.598;2023-04-01T02:19:02;9.60;99.90
51884;DHT22;37915;53.254;6.598;2023-04-01T02:21:33;9.60;99.90
51884;DHT22;37915;53.254;6.598;2023-04-01T02:24:02;9.60;99.90
51884;DHT22;37915;53.254;6.598;2023-04-01T02:26:30;9.60;99.90
51884;DHT22;37915;53.254;6.598;2023-04-01T02:28:57;9.50;99.90
51884;DHT22;37915;53.254;6.598;2023-04-01T02:31:25;9.60;99.90
51884;DHT22;37915;53.254;6.598;2023-04-01T02:33:51;9.60;99.90
51884;DHT22;37915;53.254;6.598;2023-04-01T02:36:17;9.50;99.90
51884;DHT22;37915;53.254;6.598;2023-04-01T02:38:44;9.50;99.90
51884;DHT22;37915;53.254;6.598;2023-04-01T02:41:10;9.50;99.90
51884;DHT22;37915;53.254;6.598;2023-04-01T02:43:36;9.60;99.90
51884;DHT22;37915;53.254;6.598;2023-04-01T02:46:02;9.50;99.90
51884;DHT22;37915;53.254;6.598;2023-04-01T02:48:29;9.50;99.90
51884;DHT22;37915;53.254;6.598;2023-04-01T02:50:54;9.50;99.90
51884;DHT22;37915;53.254;6.598;2023-04-01T02:53:21;9.50;99.90
51884;DHT22;37915;53.254;6.598;2023-04-01T02:55:47;9.50;99.90
51884;DHT22;37915;53.254;6.598;2023-04-01T02:58:16;9.50;99.90
51884;DHT22;37915;53.254;6.598;2023-04-01T03:00:41;9.50;99.90
51884;DHT22;37915;53.254;6.598;2023-04-01T03:03:08;9.50;99.90
51884;DHT22;37915;53.254;6.598;2023-04-01T03:05:33;9.50;99.90
51884;DHT22;37915;53.254;6.598;2023-04-01T03:07:59;9.50;99.90
51884;DHT22;37915;53.254;6.598;2023-04-01T03:10:25;9.50;99.90
51884;DHT22;37915;53.254;6.598;2023-04-01T03:12:50;9.50;99.90
51884;DHT22;37915;53.254;6.598;2023-04-01T03:15:16;9.50;99.90
51884;DHT22;37915;53.254;6.598;2023-04-01T03:17:42;9.50;99.90
51884;DHT22;37915;53.254;6.598;2023-04-01T03:20:09;9.40;99.90
51884;DHT22;37915;53.254;6.598;2023-04-01T03:22:36;9.50;99.90
51884;DHT22;37915;53.254;6.598;2023-04-01T03:25:03;9.40;99.90
51884;DHT22;37915;53.254;6.598;2023-04-01T03:27:29;9.40;99.90
51884;DHT22;37915;53.254;6.598;2023-04-01T03:29:55;9.30;99.90
51884;DHT22;37915;53.254;6.598;2023-04-01T03:32:21;9.40;99.90
51884;DHT22;37915;53.254;6.598;2023-04-01T03:34:46;9.40;99.90
51884;DHT22;37915;53.254;6.598;2023-04-01T03:37:12;9.40;99.90
51884;DHT22;37915;53.254;6.598;2023-04-01T03:39:38;9.30;99.90
51884;DHT22;37915;53.254;6.598;2023-04-01T03:42:03;9.40;99.90
51884;DHT22;37915;53.254;6.598;2023-04-01T03:44:35;9.30;99.90
51884;DHT22;37915;53.254;6.598;2023-04-01T03:47:01;9.30;99.90
51884;DHT22;37915;53.254;6.598;2023-04-01T03:49:28;9.30;99.90
51884;DHT22;37915;53.254;6.598;2023-04-01T03:51:53;9.40;99.90
51884;DHT22;37915;53.254;6.598;2023-04-01T03:54:20;9.30;99.90
51884;DHT22;37915;53.254;6.598;2023-04-01T03:56:46;9.40;99.90
51884;DHT22;37915;53.254;6.598;2023-04-01T03:59:12;9.30;99.90
51884;DHT22;37915;53.254;6.598;2023-04-01T04:01:37;9.30;99.90
51884;DHT22;37915;53.254;6.598;2023-04-01T04:04:03;9.40;99.90
51884;DHT22;37915;53.254;6.598;2023-04-01T04:06:30;9.30;99.90
51884;DHT22;37915;53.254;6.598;2023-04-01T04:08:55;9.30;99.90
51884;DHT22;37915;53.254;6.598;2023-04-01T04:11:22;9.30;99.90
51884;DHT22;37915;53.254;6.598;2023-04-01T04:13:47;9.40;99.90
51884;DHT22;37915;53.254;6.598;2023-04-01T04:16:16;9.40;99.90
51884;DHT22;37915;53.254;6.598;2023-04-01T04:18:42;9.40;99.90
51884;DHT22;37915;53.254;6.598;2023-04-01T04:21:12;9.40;99.90
51884;DHT22;37915;53.254;6.598;2023-04-01T04:23:39;9.40;99.90
51884;DHT22;37915;53.254;6.598;2023-04-01T04:26:10;9.40;99.90
51884;DHT22;37915;53.254;6.598;2023-04-01T04:28:36;9.40;99.90
51884;DHT22;37915;53.254;6.598;2023-04-01T04:31:03;9.40;99.90
51884;DHT22;37915;53.254;6.598;2023-04-01T04:33:30;9.40;99.90
51884;DHT22;37915;53.254;6.598;2023-04-01T04:35:57;9.40;99.90
51884;DHT22;37915;53.254;6.598;2023-04-01T04:38:24;9.40;99.90
51884;DHT22;37915;53.254;6.598;2023-04-01T04:40:49;9.40;99.90
51884;DHT22;37915;53.254;6.598;2023-04-01T04:43:16;9.40;99.90
51884;DHT22;37915;53.254;6.598;2023-04-01T04:45:42;9.40;99.90
51884;DHT22;37915;53.254;6.598;2023-04-01T04:48:09;9.40;99.90
51884;DHT22;37915;53.254;6.598;2023-04-01T04:50:35;9.40;99.90
51884;DHT22;37915;53.254;6.598;2023-04-01T04:53:01;9.40;99.90
51884;DHT22;37915;53.254;6.598;2023-04-01T04:55:27;9.40;99.90
51884;DHT22;37915;53.254;6.598;2023-04-01T04:57:52;9.40;99.90
51884;DHT22;37915;53.254;6.598;2023-04-01T05:00:18;9.40;99.90
51884;DHT22;37915;53.254;6.598;2023-04-01T05:02:44;9.40;99.90
51884;DHT22;37915;53.254;6.598;2023-04-01T05:05:10;9.40;99.90
51884;DHT22;37915;53.254;6.598;2023-04-01T05:07:36;9.40;99.90
51884;DHT22;37915;53.254;6.598;2023-04-01T05:10:02;9.40;99.90
51884;DHT22;37915;53.254;6.598;2023-04-01T05:12:28;9.40;99.90
51884;DHT22;37915;53.254;6.598;2023-04-01T05:14:54;9.40;99.90
51884;DHT22;37915;53.254;6.598;2023-04-01T05:17:20;9.40;99.90
51884;DHT22;37915;53.254;6.598;2023-04-01T05:19:46;9.50;99.90
51884;DHT22;37915;53.254;6.598;2023-04-01T05:22:11;9.40;99.90
51884;DHT22;37915;53.254;6.598;2023-04-01T05:24:37;9.40;99.90
51884;DHT22;37915;53.254;6.598;2023-04-01T05:27:03;9.50;99.90
51884;DHT22;37915;53.254;6.598;2023-04-01T05:29:28;9.50;99.90
51884;DHT22;37915;53.254;6.598;2023-04-01T05:31:54;9.50;99.90
51884;DHT22;37915;53.254;6.598;2023-04-01T05:34:20;9.50;99.90
51884;DHT22;37915;53.254;6.598;2023-04-01T05:36:45;9.50;99.90
51884;DHT22;37915;53.254;6.598;2023-04-01T05:39:11;9.50;99.90
51884;DHT22;37915;53.254;6.598;2023-04-01T05:41:38;9.50;99.90
51884;DHT22;37915;53.254;6.598;2023-04-01T05:44:04;9.50;99.90
51884;DHT22;37915;53.254;6.598;2023-04-01T05:46:31;9.50;99.90
51884;DHT22;37915;53.254;6.598;2023-04-01T05:48:57;9.50;99.90
51884;DHT22;37915;53.254;6.598;2023-04-01T05:51:23;9.50;99.90
51884;DHT22;37915;53.254;6.598;2023-04-01T05:53:49;9.50;99.90
51884;DHT22;37915;53.254;6.598;2023-04-01T05:56:15;9.50;99.90
51884;DHT22;37915;53.254;6.598;2023-04-01T05:58:40;9.50;99.90
51884;DHT22;37915;53.254;6.598;2023-04-01T06:01:09;9.50;99.90
51884;DHT22;37915;53.254;6.598;2023-04-01T06:03:35;9.50;99.90
51884;DHT22;37915;53.254;6.598;2023-04-01T06:06:02;9.50;99.90
51884;DHT22;37915;53.254;6.598;2023-04-01T06:08:30;9.50;99.90
51884;DHT22;37915;53.254;6.598;2023-04-01T06:14:49;9.60;99.90
51884;DHT22;37915;53.254;6.598;2023-04-01T06:31:33;9.70;99.90
51884;DHT22;37915;53.254;6.598;2023-04-01T06:34:42;9.80;99.90
51884;DHT22;37915;53.254;6.598;2023-04-01T06:45:57;9.80;99.90
51884;DHT22;37915;53.254;6.598;2023-04-01T06:48:45;9.80;99.90
51884;DHT22;37915;53.254;6.598;2023-04-01T06:51:34;9.80;99.90
51884;DHT22;37915;53.254;6.598;2023-04-01T06:56:54;9.90;99.90
51884;DHT22;37915;53.254;6.598;2023-04-01T06:59:26;9.90;99.90
51884;DHT22;37915;53.254;6.598;2023-04-01T07:02:05;9.90;99.90
51884;DHT22;37915;53.254;6.598;2023-04-01T07:04:44;9.90;99.90
51884;DHT22;37915;53.254;6.598;2023-04-01T07:07:33;9.90;99.90
51884;DHT22;37915;53.254;6.598;2023-04-01T07:10:04;9.90;99.90
51884;DHT22;37915;53.254;6.598;2023-04-01T07:14:58;10.00;99.90
51884;DHT22;37915;53.254;6.598;2023-04-01T07:17:33;10.00;99.90
51884;DHT22;37915;53.254;6.598;2023-04-01T07:22:49;10.00;99.90
51884;DHT22;37915;53.254;6.598;2023-04-01T07:25:22;10.10;99.90
51884;DHT22;37915;53.254;6.598;2023-04-01T07:27:56;10.10;99.90
51884;DHT22;37915;53.254;6.598;2023-04-01T07:30:29;10.10;99.90
51884;DHT22;37915;53.254;6.598;2023-04-01T07:35:47;10.20;99.90
51884;DHT22;37915;53.254;6.598;2023-04-01T07:49:52;10.50;99.90
51884;DHT22;37915;53.254;6.598;2023-04-01T07:58:02;10.70;99.90
51884;DHT22;37915;53.254;6.598;2023-04-01T08:00:42;10.70;99.90
51884;DHT22;37915;53.254;6.598;2023-04-01T08:06:18;10.90;99.90
51884;DHT22;37915;53.254;6.598;2023-04-01T08:08:59;10.90;99.90
51884;DHT22;37915;53.254;6.598;2023-04-01T08:17:08;11.10;99.90
51884;DHT22;37915;53.254;6.598;2023-04-01T08:20:18;11.10;99.90
51884;DHT22;37915;53.254;6.598;2023-04-01T08:22:58;11.10;99.90
51884;DHT22;37915;53.254;6.598;2023-04-01T08:25:28;11.10;99.90
51884;DHT22;37915;53.254;6.598;2023-04-01T08:28:17;11.10;99.90
51884;DHT22;37915;53.254;6.598;2023-04-01T08:30:56;11.20;99.90
51884;DHT22;37915;53.254;6.598;2023-04-01T08:33:29;11.10;99.90
51884;DHT22;37915;53.254;6.598;2023-04-01T08:38:47;11.20;99.90
51884;DHT22;37915;53.254;6.598;2023-04-01T08:46:56;10.90;99.90
51884;DHT22;37915;53.254;6.598;2023-04-01T08:55:27;10.60;99.90
51884;DHT22;37915;53.254;6.598;2023-04-01T09:03:47;10.60;99.90
51884;DHT22;37915;53.254;6.598;2023-04-01T09:06:35;10.50;99.90
51884;DHT22;37915;53.254;6.598;2023-04-01T09:14:54;10.30;99.90
51884;DHT22;37915;53.254;6.598;2023-04-01T09:20:28;10.20;99.90
51884;DHT22;37915;53.254;6.598;2023-04-01T09:36:07;10.50;99.90
51884;DHT22;37915;53.254;6.598;2023-04-01T09:55:13;10.20;99.90
51884;DHT22;37915;53.254;6.598;2023-04-01T09:57:51;10.20;99.90
51884;DHT22;37915;53.254;6.598;2023-04-01T10:22:44;9.80;99.90
51884;DHT22;37915;53.254;6.598;2023-04-01T10:25:34;9.80;99.90
51884;DHT22;37915;53.254;6.598;2023-04-01T10:28:23;9.80;99.90
51884;DHT22;37915;53.254;6.598;2023-04-01T10:31:17;9.80;99.90
51884;DHT22;37915;53.254;6.598;2023-04-01T10:34:12;9.70;99.90
51884;DHT22;37915;53.254;6.598;2023-04-01T10:36:56;9.80;99.90
51884;DHT22;37915;53.254;6.598;2023-04-01T10:53:36;9.90;99.90
51884;DHT22;37915;53.254;6.598;2023-04-01T10:59:13;9.80;99.90
51884;DHT22;37915;53.254;6.598;2023-04-01T11:26:57;9.80;99.90
51884;DHT22;37915;53.254;6.598;2023-04-01T11:33:11;9.70;99.90
51884;DHT22;37915;53.254;6.598;2023-04-01T11:35:59;9.70;99.90
51884;DHT22;37915;53.254;6.598;2023-04-01T11:44:24;9.70;99.90
51884;DHT22;37915;53.254;6.598;2023-04-01T11:57:56;9.80;99.90
51884;DHT22;37915;53.254;6.598;2023-04-01T12:00:46;9.80;99.90
51884;DHT22;37915;53.254;6.598;2023-04-01T12:03:28;9.90;99.90
51884;DHT22;37915;53.254;6.598;2023-04-01T12:06:26;9.90;99.90
51884;DHT22;37915;53.254;6.598;2023-04-01T12:12:14;9.90;99.90
51884;DHT22;37915;53.254;6.598;2023-04-01T12:15:17;9.90;99.90
51884;DHT22;37915;53.254;6.598;2023-04-01T12:20:49;10.00;99.90
51884;DHT22;37915;53.254;6.598;2023-04-01T12:29:35;10.00;99.90
51884;DHT22;37915;53.254;6.598;2023-04-01T12:35:04;9.90;99.90
51884;DHT22;37915;53.254;6.598;2023-04-01T12:37:45;9.80;99.90
51884;DHT22;37915;53.254;6.598;2023-04-01T12:40:24;9.80;99.90
51884;DHT22;37915;53.254;6.598;2023-04-01T12:59:24;10.10;99.90
51884;DHT22;37915;53.254;6.598;2023-04-01T13:02:12;10.10;99.90
51884;DHT22;37915;53.254;6.598;2023-04-01T13:05:20;10.10;99.90
51884;DHT22;37915;53.254;6.598;2023-04-01T13:14:09;10.00;99.90
51884;DHT22;37915;53.254;6.598;2023-04-01T13:16:54;10.00;99.90
51884;DHT22;37915;53.254;6.598;2023-04-01T13:19:35;10.00;99.90
51884;DHT22;37915;53.254;6.598;2023-04-01T13:22:29;9.90;99.90
51884;DHT22;37915;53.254;6.598;2023-04-01T13:25:23;9.90;99.90
51884;DHT22;37915;53.254;6.598;2023-04-01T13:28:18;9.90;99.90
51884;DHT22;37915;53.254;6.598;2023-04-01T13:31:11;9.90;99.90
51884;DHT22;37915;53.254;6.598;2023-04-01T13:34:25;9.80;99.90
51884;DHT22;37915;53.254;6.598;2023-04-01T13:37:15;9.80;99.90
51884;DHT22;37915;53.254;6.598;2023-04-01T13:40:01;9.80;99.90
51884;DHT22;37915;53.254;6.598;2023-04-01T13:42:38;9.80;99.90
51884;DHT22;37915;53.254;6.598;2023-04-01T13:45:24;9.90;99.90
51884;DHT22;37915;53.254;6.598;2023-04-01T14:10:25;9.40;99.90
51884;DHT22;37915;53.254;6.598;2023-04-01T14:19:52;9.30;99.90
51884;DHT22;37915;53.254;6.598;2023-04-01T14:25:03;9.30;99.90
51884;DHT22;37915;53.254;6.598;2023-04-01T14:41:47;9.10;99.90
51884;DHT22;37915;53.254;6.598;2023-04-01T14:47:11;9.00;99.90
51884;DHT22;37915;53.254;6.598;2023-04-01T14:49:46;9.00;99.90
51884;DHT22;37915;53.254;6.598;2023-04-01T14:54:49;8.90;99.90
51884;DHT22;37915;53.254;6.598;2023-04-01T15:00:13;8.70;99.90
51884;DHT22;37915;53.254;6.598;2023-04-01T15:05:27;8.70;99.90
51884;DHT22;37915;53.254;6.598;2023-04-01T15:10:53;8.60;99.90
51884;DHT22;37915;53.254;6.598;2023-04-01T15:13:34;8.60;99.90
51884;DHT22;37915;53.254;6.598;2023-04-01T15:29:56;8.50;99.90
51884;DHT22;37915;53.254;6.598;2023-04-01T15:32:36;8.40;99.90
51884;DHT22;37915;53.254;6.598;2023-04-01T15:35:26;8.30;99.90
51884;DHT22;37915;53.254;6.598;2023-04-01T15:37:59;8.30;99.90
51884;DHT22;37915;53.254;6.598;2023-04-01T15:40:40;8.30;99.90
51884;DHT22;37915;53.254;6.598;2023-04-01T15:43:42;8.20;99.90
51884;DHT22;37915;53.254;6.598;2023-04-01T15:46:41;8.20;99.90
51884;DHT22;37915;53.254;6.598;2023-04-01T15:57:03;8.00;99.90
51884;DHT22;37915;53.254;6.598;2023-04-01T16:00:02;7.90;99.90
51884;DHT22;37915;53.254;6.598;2023-04-01T16:02:40;7.90;99.90
51884;DHT22;37915;53.254;6.598;2023-04-01T16:14:09;7.70;99.90
51884;DHT22;37915;53.254;6.598;2023-04-01T16:17:16;7.70;99.90
51884;DHT22;37915;53.254;6.598;2023-04-01T16:20:14;7.60;99.90
51884;DHT22;37915;53.254;6.598;2023-04-01T16:22:58;7.60;99.90
51884;DHT22;37915;53.254;6.598;2023-04-01T16:25:44;7.60;99.90
51884;DHT22;37915;53.254;6.598;2023-04-01T16:28:49;7.50;99.90
51884;DHT22;37915;53.254;6.598;2023-04-01T16:34:32;7.50;99.90
51884;DHT22;37915;53.254;6.598;2023-04-01T16:37:11;7.50;99.90
51884;DHT22;37915;53.254;6.598;2023-04-01T16:42:47;7.50;99.90
51884;DHT22;37915;53.254;6.598;2023-04-01T16:45:30;7.40;99.90
51884;DHT22;37915;53.254;6.598;2023-04-01T16:48:11;7.40;99.90
51884;DHT22;37915;53.254;6.598;2023-04-01T16:53:46;7.30;99.90
51884;DHT22;37915;53.254;6.598;2023-04-01T16:56:24;7.30;99.90
51884;DHT22;37915;53.254;6.598;2023-04-01T16:59:06;7.20;99.90
51884;DHT22;37915;53.254;6.598;2023-04-01T17:01:52;7.20;99.90
51884;DHT22;37915;53.254;6.598;2023-04-01T17:04:25;7.20;99.90
51884;DHT22;37915;53.254;6.598;2023-04-01T17:22:53;7.10;99.90
51884;DHT22;37915;53.254;6.598;2023-04-01T17:27:55;7.00;99.90
51884;DHT22;37915;53.254;6.598;2023-04-01T17:35:58;7.00;99.90
51884;DHT22;37915;53.254;6.598;2023-04-01T17:38:50;6.90;99.90
51884;DHT22;37915;53.254;6.598;2023-04-01T17:52:10;6.80;99.90
51884;DHT22;37915;53.254;6.598;2023-04-01T17:55:03;7.10;99.90
51884;DHT22;37915;53.254;6.598;2023-04-01T17:57:43;6.80;99.90
51884;DHT22;37915;53.254;6.598;2023-04-01T18:06:19;6.70;99.90
51884;DHT22;37915;53.254;6.598;2023-04-01T18:11:25;6.60;99.90
51884;DHT22;37915;53.254;6.598;2023-04-01T18:14:30;6.60;99.90
51884;DHT22;37915;53.254;6.598;2023-04-01T18:17:23;6.60;99.90
51884;DHT22;37915;53.254;6.598;2023-04-01T18:20:20;6.60;99.90
51884;DHT22;37915;53.254;6.598;2023-04-01T18:23:38;6.60;99.90
51884;DHT22;37915;53.254;6.598;2023-04-01T18:25:47;6.60;99.90
51884;DHT22;37915;53.254;6.598;2023-04-01T18:31:11;6.50;99.90
51884;DHT22;37915;53.254;6.598;2023-04-01T18:33:56;6.50;99.90
51884;DHT22;37915;53.254;6.598;2023-04-01T18:39:08;6.40;99.90
51884;DHT22;37915;53.254;6.598;2023-04-01T18:41:49;6.40;99.90
51884;DHT22;37915;53.254;6.598;2023-04-01T18:47:13;6.40;99.90
51884;DHT22;37915;53.254;6.598;2023-04-01T18:49:48;6.40;99.90
51884;DHT22;37915;53.254;6.598;2023-04-01T18:52:39;6.40;99.90
51884;DHT22;37915;53.254;6.598;2023-04-01T18:55:33;6.30;99.90
51884;DHT22;37915;53.254;6.598;2023-04-01T18:58:27;6.30;99.90
51884;DHT22;37915;53.254;6.598;2023-04-01T19:01:18;6.30;99.90
51884;DHT22;37915;53.254;6.598;2023-04-01T19:06:51;6.20;99.90
51884;DHT22;37915;53.254;6.598;2023-04-01T19:17:10;6.20;99.90
51884;DHT22;37915;53.254;6.598;2023-04-01T19:25:51;6.00;99.90
51884;DHT22;37915;53.254;6.598;2023-04-01T19:27:53;6.00;99.90
51884;DHT22;37915;53.254;6.598;2023-04-01T19:30:36;6.10;99.90
51884;DHT22;37915;53.254;6.598;2023-04-01T19:47:50;5.90;99.90
51884;DHT22;37915;53.254;6.598;2023-04-01T19:50:46;5.90;99.90
51884;DHT22;37915;53.254;6.598;2023-04-01T19:53:36;4.40;99.90
51884;DHT22;37915;53.254;6.598;2023-04-01T19:56:18;5.80;99.90
51884;DHT22;37915;53.254;6.598;2023-04-01T20:02:25;5.80;99.90
51884;DHT22;37915;53.254;6.598;2023-04-01T20:04:54;5.70;99.90
51884;DHT22;37915;53.254;6.598;2023-04-01T20:07:31;5.80;99.90
51884;DHT22;37915;53.254;6.598;2023-04-01T20:12:57;5.70;99.90
51884;DHT22;37915;53.254;6.598;2023-04-01T20:15:30;5.70;99.90
51884;DHT22;37915;53.254;6.598;2023-04-01T20:18:01;5.90;99.90
51884;DHT22;37915;53.254;6.598;2023-04-01T20:20:29;5.60;99.90
51884;DHT22;37915;53.254;6.598;2023-04-01T20:23:05;5.70;99.90
51884;DHT22;37915;53.254;6.598;2023-04-01T20:25:40;5.70;99.90
51884;DHT22;37915;53.254;6.598;2023-04-01T20:28:19;5.70;99.90
51884;DHT22;37915;53.254;6.598;2023-04-01T20:36:34;5.60;99.90
51884;DHT22;37915;53.254;6.598;2023-04-01T20:45:00;5.50;99.90
51884;DHT22;37915;53.254;6.598;2023-04-01T20:50:59;5.50;99.90
51884;DHT22;37915;53.254;6.598;2023-04-01T20:53:45;5.50;99.90
51884;DHT22;37915;53.254;6.598;2023-04-01T20:59:28;5.50;99.90
51884;DHT22;37915;53.254;6.598;2023-04-01T21:07:26;5.40;99.90
51884;DHT22;37915;53.254;6.598;2023-04-01T21:09:57;5.40;99.90
51884;DHT22;37915;53.254;6.598;2023-04-01T21:13:07;5.50;99.90
51884;DHT22;37915;53.254;6.598;2023-04-01T21:26:47;5.30;99.90
51884;DHT22;37915;53.254;6.598;2023-04-01T21:29:31;5.30;99.90
51884;DHT22;37915;53.254;6.598;2023-04-01T21:57:20;5.20;99.90
51884;DHT22;37915;53.254;6.598;2023-04-01T22:09:06;5.20;99.90
51884;DHT22;37915;53.254;6.598;2023-04-01T22:11:58;5.20;99.90
51884;DHT22;37915;53.254;6.598;2023-04-01T22:14:37;5.20;99.90
51884;DHT22;37915;53.254;6.598;2023-04-01T22:22:28;5.10;99.90
51884;DHT22;37915;53.254;6.598;2023-04-01T22:25:12;5.10;99.90
51884;DHT22;37915;53.254;6.598;2023-04-01T22:30:13;5.00;99.90
51884;DHT22;37915;53.254;6.598;2023-04-01T22:32:43;4.90;99.90
51884;DHT22;37915;53.254;6.598;2023-04-01T22:37:57;5.30;99.90
51884;DHT22;37915;53.254;6.598;2023-04-01T22:40:44;4.80;99.90
51884;DHT22;37915;53.254;6.598;2023-04-01T22:43:36;4.80;99.90
51884;DHT22;37915;53.254;6.598;2023-04-01T22:46:15;4.70;99.90
51884;DHT22;37915;53.254;6.598;2023-04-01T22:51:43;4.60;99.90
51884;DHT22;37915;53.254;6.598;2023-04-01T22:59:39;4.60;99.90
51884;DHT22;37915;53.254;6.598;2023-04-01T23:02:26;4.50;99.90
51884;DHT22;37915;53.254;6.598;2023-04-01T23:04:55;4.50;99.90
51884;DHT22;37915;53.254;6.598;2023-04-01T23:10:41;4.50;99.90
51884;DHT22;37915;53.254;6.598;2023-04-01T23:13:14;4.40;99.90
51884;DHT22;37915;53.254;6.598;2023-04-01T23:15:42;4.50;99.90
51884;DHT22;37915;53.254;6.598;2023-04-01T23:18:28;4.40;99.90
51884;DHT22;37915;53.254;6.598;2023-04-01T23:24:19;4.30;99.90
51884;DHT22;37915;53.254;6.598;2023-04-01T23:26:56;4.30;99.90
51884;DHT22;37915;53.254;6.598;2023-04-01T23:29:25;5.20;99.90
51884;DHT22;37915;53.254;6.598;2023-04-01T23:31:58;4.30;99.90
51884;DHT22;37915;53.254;6.598;2023-04-01T23:37:17;4.10;99.90
51884;DHT22;37915;53.254;6.598;2023-04-01T23:39:55;4.10;99.90
51884;DHT22;37915;53.254;6.598;2023-04-01T23:42:42;4.20;99.90
51884;DHT22;37915;53.254;6.598;2023-04-01T23:45:17;3.90;99.90
51884;DHT22;37915;53.254;6.598;2023-04-01T23:47:47;3.90;99.90
51884;DHT22;37915;53.254;6.598;2023-04-01T23:50:18;3.90;99.90
51884;DHT22;37915;53.254;6.598;2023-04-01T23:52:58;3.80;99.90
51884;DHT22;37915;53.254;6.598;2023-04-01T23:55:31;3.70;99.90
